Time;durP1;ratioP1;P1;durP2;ratioP2;P2;SDS_P1;SDS_P2;PMS_P1;PMS_P2;Temp;Humidity;BMP_temperature;BMP_pressure;BME280_temperature;BME280_humidity;BME280_pressure;Samples;Min_cycle;Max_cycle;Signal;HPM_P1;HPM_P2
2023/05/11 00:00:30;;;;;;;9.87;6.77;;;11.90;99.90;;;;;;6121948;23;20406;-92
2023/05/11 00:02:56;;;;;;;15.82;7.38;;;12.30;99.90;;;;;;6123249;23;20383;-93
2023/05/11 00:05:21;;;;;;;11.82;7.20;;;12.80;99.90;;;;;;6122294;23;20462;-92
2023/05/11 00:07:47;;;;;;;10.10;7.10;;;11.90;99.90;;;;;;6124236;23;20900;-93
2023/05/11 00:10:13;;;;;;;10.50;7.03;;;12.40;99.90;;;;;;6121774;23;20394;-93
2023/05/11 00:12:39;;;;;;;11.38;7.20;;;12.20;99.90;;;;;;6124312;23;20455;-93
2023/05/11 00:15:05;;;;;;;11.32;6.97;;;11.90;99.90;;;;;;6121963;23;20726;-93
2023/05/11 00:17:30;;;;;;;9.13;7.00;;;11.80;99.90;;;;;;6123593;23;20382;-92
2023/05/11 00:19:56;;;;;;;9.32;7.32;;;11.80;99.90;;;;;;6123685;23;20383;-91
2023/05/11 00:22:22;;;;;;;9.77;7.10;;;12.00;99.90;;;;;;6122778;23;20381;-91
2023/05/11 00:24:47;;;;;;;10.40;7.10;;;12.10;99.90;;;;;;6124330;23;20379;-94
2023/05/11 00:27:15;;;;;;;8.00;6.30;;;12.20;99.90;;;;;;6122300;23;20422;-96
2023/05/11 00:29:41;;;;;;;7.83;6.63;;;12.00;99.90;;;;;;6099854;23;20371;-93
2023/05/11 00:32:07;;;;;;;11.07;6.00;;;12.10;99.90;;;;;;6122088;23;20417;-92
2023/05/11 00:34:33;;;;;;;12.52;6.30;;;12.00;99.90;;;;;;6124227;23;20374;-94
2023/05/11 00:36:59;;;;;;;10.18;6.60;;;12.00;99.90;;;;;;6122267;23;20371;-91
2023/05/11 00:39:24;;;;;;;9.73;6.80;;;11.70;99.90;;;;;;6122899;23;20391;-93
2023/05/11 00:41:50;;;;;;;20.37;7.13;;;11.60;99.90;;;;;;6123798;23;20422;-91
2023/05/11 00:44:16;;;;;;;10.85;7.57;;;11.80;99.90;;;;;;6121717;23;20407;-91
2023/05/11 00:46:42;;;;;;;9.98;7.10;;;11.60;99.90;;;;;;6124369;23;20394;-93
2023/05/11 00:49:08;;;;;;;14.15;7.32;;;11.70;99.90;;;;;;6121764;23;20399;-93
2023/05/11 00:51:35;;;;;;;10.80;7.63;;;11.70;99.90;;;;;;6123872;23;20398;-92
2023/05/11 00:54:01;;;;;;;10.37;7.13;;;11.80;99.90;;;;;;6122080;23;20865;-94
2023/05/11 00:56:27;;;;;;;11.25;6.80;;;11.90;99.90;;;;;;6123519;23;20371;-91
2023/05/11 00:58:53;;;;;;;8.20;6.07;;;11.70;99.90;;;;;;6123232;23;20438;-93
2023/05/11 01:01:19;;;;;;;11.20;6.95;;;11.90;99.90;;;;;;6122308;23;20370;-91
2023/05/11 01:03:46;;;;;;;12.35;7.07;;;11.30;99.90;;;;;;6123647;23;20398;-91
2023/05/11 01:06:24;;;;;;;20.52;7.57;;;11.60;99.90;;;;;;6121221;23;20390;-93
2023/05/11 01:09:00;;;;;;;12.40;7.22;;;12.10;99.90;;;;;;6123463;23;20493;-91
2023/05/11 01:11:55;;;;;;;11.90;7.07;;;11.60;99.90;;;;;;6122115;23;20411;-91
2023/05/11 01:14:38;;;;;;;13.38;6.40;;;11.60;99.90;;;;;;6114409;23;20383;-92
2023/05/11 01:17:16;;;;;;;17.52;6.68;;;11.60;99.90;;;;;;6123535;23;21046;-93
2023/05/11 01:20:01;;;;;;;18.73;6.35;;;11.60;99.90;;;;;;6121883;23;20686;-93
2023/05/11 01:22:32;;;;;;;16.67;6.93;;;11.30;99.90;;;;;;6123382;23;20379;-92
2023/05/11 01:25:06;;;;;;;20.08;7.28;;;11.50;99.90;;;;;;6122919;23;20422;-92
2023/05/11 01:27:55;;;;;;;23.48;7.43;;;11.50;99.90;;;;;;6122092;23;20395;-92
2023/05/11 01:30:34;;;;;;;36.20;7.53;;;11.50;99.90;;;;;;6124016;23;20442;-91
2023/05/11 01:33:08;;;;;;;29.63;7.97;;;11.50;99.90;;;;;;6121687;23;20397;-91
2023/05/11 01:35:37;;;;;;;30.50;8.18;;;12.00;99.90;;;;;;6122600;23;20380;-92
2023/05/11 01:38:08;;;;;;;116.15;11.00;;;11.80;99.90;;;;;;6123027;23;20367;-91
2023/05/11 01:40:36;;;;;;;103.47;9.57;;;11.60;99.90;;;;;;6121786;23;20691;-90
2023/05/11 01:43:10;;;;;;;21.15;7.85;;;11.70;99.90;;;;;;6123444;23;20363;-93
2023/05/11 01:45:40;;;;;;;14.50;6.47;;;11.60;99.90;;;;;;6121083;23;20383;-91
2023/05/11 01:48:11;;;;;;;25.42;6.78;;;11.70;99.90;;;;;;6123041;23;20395;-90
2023/05/11 01:50:38;;;;;;;29.37;7.07;;;11.60;99.90;;;;;;6122023;23;20367;-91
2023/05/11 01:53:06;;;;;;;30.13;7.40;;;11.50;99.90;;;;;;6122611;23;20378;-92
2023/05/11 01:55:34;;;;;;;69.28;8.32;;;11.10;99.90;;;;;;6122704;23;20427;-93
2023/05/11 01:58:02;;;;;;;175.67;10.60;;;11.40;99.90;;;;;;6120972;23;20373;-92
2023/05/11 02:00:29;;;;;;;103.75;8.10;;;11.10;99.90;;;;;;6123552;23;20382;-92
2023/05/11 02:02:57;;;;;;;120.70;8.50;;;11.50;99.90;;;;;;6120568;23;20864;-92
2023/05/11 02:05:24;;;;;;;40.03;6.75;;;11.20;99.90;;;;;;6123455;23;20418;-92
2023/05/11 02:07:54;;;;;;;48.53;7.18;;;11.30;99.90;;;;;;6121569;23;20446;-91
2023/05/11 02:10:24;;;;;;;79.85;7.05;;;11.30;99.90;;;;;;6122473;23;21512;-91
2023/05/11 02:12:51;;;;;;;42.30;4.40;;;11.00;99.90;;;;;;6122908;23;20374;-94
2023/05/11 02:15:20;;;;;;;101.82;6.57;;;11.00;99.90;;;;;;6120798;23;20863;-91
2023/05/11 02:17:46;;;;;;;176.30;9.50;;;11.00;99.90;;;;;;6123599;23;20375;-93
2023/05/11 02:20:13;;;;;;;219.07;10.23;;;11.20;99.90;;;;;;6120783;23;20757;-93
2023/05/11 02:22:41;;;;;;;44.75;5.85;;;11.10;99.90;;;;;;6122820;23;20682;-94
2023/05/11 02:25:08;;;;;;;47.63;5.88;;;11.20;99.90;;;;;;6121287;23;20430;-92
2023/05/11 02:27:34;;;;;;;48.72;5.97;;;11.00;99.90;;;;;;6122417;23;20458;-93
2023/05/11 02:30:07;;;;;;;129.77;8.05;;;11.70;99.90;;;;;;6122339;23;20786;-91
2023/05/11 02:32:36;;;;;;;44.05;5.55;;;11.10;99.90;;;;;;6121359;23;20382;-92
2023/05/11 02:35:16;;;;;;;62.70;5.97;;;11.10;99.90;;;;;;6123045;23;20375;-92
2023/05/11 02:37:44;;;;;;;94.95;6.72;;;11.10;99.90;;;;;;6120885;23;20713;-91
2023/05/11 02:40:15;;;;;;;89.00;5.57;;;10.80;99.90;;;;;;6122775;23;20405;-93
2023/05/11 02:42:43;;;;;;;41.60;5.00;;;11.30;99.90;;;;;;6121903;23;20709;-92
2023/05/11 02:45:13;;;;;;;33.80;4.97;;;11.30;99.90;;;;;;6121551;23;20409;-92
2023/05/11 02:47:44;;;;;;;54.67;5.32;;;11.10;99.90;;;;;;6122674;23;20922;-91
2023/05/11 02:50:11;;;;;;;130.98;6.35;;;11.30;99.90;;;;;;6120984;23;20366;-93
2023/05/11 02:52:42;;;;;;;119.33;5.70;;;11.50;99.90;;;;;;6122908;23;20382;-91
2023/05/11 02:55:09;;;;;;;151.27;6.97;;;11.20;99.90;;;;;;6120928;23;20786;-92
2023/05/11 02:57:36;;;;;;;69.75;5.47;;;10.80;99.90;;;;;;6122437;23;20383;-92
2023/05/11 03:00:02;;;;;;;73.82;5.10;;;10.80;99.90;;;;;;6121450;23;20740;-91
2023/05/11 03:02:28;;;;;;;20.73;3.80;;;10.80;99.90;;;;;;6121041;23;21317;-91
2023/05/11 03:04:53;;;;;;;23.70;4.07;;;10.80;99.90;;;;;;6122232;23;20391;-91
2023/05/11 03:07:19;;;;;;;18.48;4.53;;;11.20;99.90;;;;;;6121230;23;20408;-91
2023/05/11 03:09:45;;;;;;;106.68;7.03;;;10.90;99.90;;;;;;6122698;23;20394;-92
2023/05/11 03:12:12;;;;;;;44.77;5.27;;;11.30;99.90;;;;;;6120492;23;20374;-93
2023/05/11 03:14:38;;;;;;;50.00;5.30;;;10.70;99.90;;;;;;6122651;23;20371;-92
2023/05/11 03:17:05;;;;;;;50.67;5.28;;;11.10;99.90;;;;;;6121378;23;20449;-92
2023/05/11 03:19:32;;;;;;;45.38;5.95;;;11.00;99.90;;;;;;6121950;23;20375;-91
2023/05/11 03:21:59;;;;;;;53.85;6.18;;;10.80;99.90;;;;;;6121909;23;20381;-92
2023/05/11 03:24:26;;;;;;;46.15;6.28;;;10.80;99.90;;;;;;6121180;23;20378;-91
2023/05/11 03:26:54;;;;;;;31.52;5.55;;;11.10;99.90;;;;;;6122960;23;20371;-91
2023/05/11 03:29:21;;;;;;;15.60;5.30;;;10.90;99.90;;;;;;6120713;23;20382;-91
2023/05/11 03:31:47;;;;;;;11.82;5.65;;;11.00;99.90;;;;;;6122555;23;20701;-92
2023/05/11 03:34:12;;;;;;;14.63;5.47;;;10.90;99.90;;;;;;6121449;23;20390;-92
2023/05/11 03:36:39;;;;;;;47.43;6.83;;;10.60;99.90;;;;;;6121779;23;20374;-92
2023/05/11 03:39:07;;;;;;;19.88;6.47;;;11.00;99.90;;;;;;6121831;23;20381;-93
2023/05/11 03:41:33;;;;;;;32.65;6.90;;;11.20;99.90;;;;;;6121520;23;20437;-92
2023/05/11 03:44:04;;;;;;;35.05;7.13;;;11.10;99.90;;;;;;6122320;23;20378;-92
2023/05/11 03:46:34;;;;;;;11.98;6.45;;;11.00;99.90;;;;;;6120573;23;20370;-93
2023/05/11 03:49:01;;;;;;;13.45;6.20;;;10.40;99.90;;;;;;6123075;23;20395;-92
2023/05/11 03:51:27;;;;;;;19.98;6.50;;;11.10;99.90;;;;;;6120544;23;20426;-92
2023/05/11 03:53:53;;;;;;;18.83;6.50;;;11.10;99.90;;;;;;6122021;23;20363;-92
2023/05/11 03:56:18;;;;;;;17.25;6.72;;;10.90;99.90;;;;;;6121321;23;20442;-93
2023/05/11 03:58:44;;;;;;;34.47;7.40;;;11.00;99.90;;;;;;6121541;23;20405;-91
2023/05/11 04:01:12;;;;;;;42.33;7.60;;;11.30;99.90;;;;;;6122023;23;20982;-92
2023/05/11 04:03:51;;;;;;;35.75;6.90;;;11.10;99.90;;;;;;6120744;23;20450;-90
2023/05/11 04:06:18;;;;;;;22.23;6.20;;;11.00;99.90;;;;;;6122387;23;20383;-92
2023/05/11 04:08:44;;;;;;;24.10;5.63;;;11.00;99.90;;;;;;6120836;23;20811;-90
2023/05/11 04:11:10;;;;;;;11.63;5.00;;;11.10;99.90;;;;;;6122153;23;20399;-92
2023/05/11 04:13:36;;;;;;;6.05;4.05;;;11.20;99.90;;;;;;6121148;23;20405;-93
2023/05/11 04:16:01;;;;;;;9.17;4.27;;;11.20;99.90;;;;;;6121176;23;20508;-93
2023/05/11 04:18:28;;;;;;;8.67;3.67;;;11.00;99.90;;;;;;6122035;23;20422;-91
2023/05/11 04:20:54;;;;;;;20.95;4.53;;;11.30;99.90;;;;;;6120527;23;20399;-91
2023/05/11 04:23:20;;;;;;;17.00;4.53;;;11.10;99.90;;;;;;6122924;23;20390;-91
2023/05/11 04:25:45;;;;;;;12.02;4.43;;;11.30;99.90;;;;;;6120251;23;20367;-92
2023/05/11 04:28:11;;;;;;;7.07;4.03;;;11.00;99.90;;;;;;6122101;23;20478;-91
2023/05/11 04:30:37;;;;;;;8.80;3.53;;;11.40;99.90;;;;;;6120652;23;20459;-91
2023/05/11 04:33:02;;;;;;;6.67;3.20;;;11.00;99.90;;;;;;6122206;23;20848;-91
2023/05/11 04:35:28;;;;;;;6.27;3.37;;;11.00;99.90;;;;;;6121549;23;20383;-91
2023/05/11 04:37:54;;;;;;;5.32;3.58;;;11.20;99.90;;;;;;6121528;23;20367;-91
2023/05/11 04:40:19;;;;;;;19.93;4.13;;;11.30;99.90;;;;;;6122440;23;20887;-91
2023/05/11 04:42:45;;;;;;;18.83;4.60;;;11.10;99.90;;;;;;6120682;23;20434;-92
2023/05/11 04:45:11;;;;;;;20.05;4.55;;;11.10;99.90;;;;;;6122364;23;20375;-94
2023/05/11 04:47:36;;;;;;;12.03;3.97;;;11.30;99.90;;;;;;6122074;23;20391;-92
2023/05/11 04:50:02;;;;;;;4.45;3.10;;;11.00;99.90;;;;;;6124080;23;20371;-91
2023/05/11 04:52:28;;;;;;;3.35;2.47;;;11.00;99.90;;;;;;6122431;23;20402;-91
2023/05/11 04:54:53;;;;;;;4.07;2.20;;;11.30;99.90;;;;;;6123582;23;21006;-91
2023/05/11 04:57:19;;;;;;;3.55;2.00;;;11.20;99.90;;;;;;6123331;23;20999;-94
2023/05/11 04:59:45;;;;;;;3.00;1.67;;;11.30;99.90;;;;;;6121808;23;20891;-92
2023/05/11 05:02:10;;;;;;;2.30;1.50;;;10.80;99.90;;;;;;6123989;23;20409;-91
2023/05/11 05:04:36;;;;;;;2.00;1.40;;;11.50;99.90;;;;;;6121995;23;20375;-91
2023/05/11 05:07:02;;;;;;;3.23;2.07;;;11.30;99.90;;;;;;6124085;23;20367;-92
2023/05/11 05:09:28;;;;;;;2.65;2.20;;;11.50;99.90;;;;;;6122727;23;20382;-92
2023/05/11 05:11:54;;;;;;;3.67;2.28;;;11.20;99.90;;;;;;6123557;23;20693;-91
2023/05/11 05:14:19;;;;;;;3.07;2.40;;;11.40;99.90;;;;;;6123191;23;20875;-92
2023/05/11 05:16:45;;;;;;;3.40;2.40;;;11.30;99.90;;;;;;6122799;23;20367;-91
2023/05/11 05:19:11;;;;;;;5.47;2.60;;;11.10;99.90;;;;;;6123652;23;20367;-91
2023/05/11 05:21:37;;;;;;;3.65;2.80;;;11.80;99.90;;;;;;6121623;23;20375;-92
2023/05/11 05:24:05;;;;;;;6.57;2.85;;;11.60;99.90;;;;;;6123766;23;20414;-92
2023/05/11 05:26:30;;;;;;;10.20;3.22;;;11.30;99.90;;;;;;6122287;23;20753;-92
2023/05/11 05:28:56;;;;;;;4.53;2.80;;;11.80;99.90;;;;;;6123253;23;20431;-91
2023/05/11 05:31:22;;;;;;;5.43;3.20;;;11.70;99.90;;;;;;6122238;23;20678;-90
2023/05/11 05:33:48;;;;;;;7.03;2.97;;;11.60;99.90;;;;;;6122634;23;20375;-91
2023/05/11 05:36:14;;;;;;;12.53;3.00;;;12.00;99.90;;;;;;6123243;23;20446;-91
2023/05/11 05:38:39;;;;;;;10.10;2.92;;;11.80;99.90;;;;;;6122109;23;20396;-90
2023/05/11 05:41:05;;;;;;;11.82;3.00;;;12.10;99.90;;;;;;6123656;23;20878;-92
2023/05/11 05:43:31;;;;;;;6.00;2.90;;;11.90;99.90;;;;;;6121721;23;20375;-90
2023/05/11 05:45:56;;;;;;;9.57;2.70;;;12.10;99.90;;;;;;6123452;23;20395;-92
2023/05/11 05:48:22;;;;;;;3.70;2.88;;;12.40;99.90;;;;;;6121815;23;20736;-91
2023/05/11 05:50:48;;;;;;;4.03;2.60;;;11.90;99.90;;;;;;6122984;23;20371;-92
2023/05/11 05:53:13;;;;;;;2.58;1.90;;;11.90;99.90;;;;;;6122479;23;20378;-92
2023/05/11 05:55:39;;;;;;;2.50;1.90;;;12.40;99.90;;;;;;6122881;23;20462;-92
2023/05/11 05:58:05;;;;;;;1.90;1.37;;;12.10;99.90;;;;;;6122138;23;20384;-93
2023/05/11 06:00:30;;;;;;;2.00;0.90;;;12.40;99.90;;;;;;6121453;23;20414;-91
2023/05/11 06:02:56;;;;;;;1.60;0.93;;;12.20;99.90;;;;;;6123336;23;20821;-91
2023/05/11 06:05:22;;;;;;;1.65;1.15;;;12.50;99.90;;;;;;6121427;23;20414;-90
2023/05/11 06:07:47;;;;;;;1.42;0.90;;;12.20;99.90;;;;;;6123187;23;20395;-91
2023/05/11 06:10:13;;;;;;;1.97;1.13;;;12.70;99.90;;;;;;6121263;23;20367;-93
2023/05/11 06:12:39;;;;;;;2.47;1.52;;;12.10;99.90;;;;;;6122782;23;20882;-93
2023/05/11 06:15:05;;;;;;;1.90;1.30;;;12.30;99.90;;;;;;6121788;23;20367;-91
2023/05/11 06:17:31;;;;;;;1.63;1.15;;;12.20;99.90;;;;;;6121925;23;20710;-92
2023/05/11 06:19:56;;;;;;;2.10;1.30;;;12.20;99.90;;;;;;6122790;23;20375;-92
2023/05/11 06:22:22;;;;;;;1.80;1.47;;;12.20;99.90;;;;;;6121725;23;20382;-91
2023/05/11 06:24:48;;;;;;;2.35;1.85;;;12.80;99.90;;;;;;6122864;23;20371;-90
2023/05/11 06:27:13;;;;;;;2.60;1.80;;;12.40;99.90;;;;;;6121032;23;20374;-91
2023/05/11 06:29:41;;;;;;;2.85;1.90;;;12.80;99.90;;;;;;6122929;23;20402;-92
2023/05/11 06:32:06;;;;;;;2.42;2.22;;;12.50;99.90;;;;;;6121354;23;20368;-91
2023/05/11 06:34:32;;;;;;;2.85;2.55;;;12.70;99.90;;;;;;6122656;23;20383;-92
2023/05/11 06:36:59;;;;;;;2.60;2.35;;;12.70;99.90;;;;;;6122397;23;20856;-93
2023/05/11 06:39:24;;;;;;;3.30;2.60;;;12.70;99.90;;;;;;6121358;23;20776;-93
2023/05/11 06:41:53;;;;;;;2.67;2.47;;;12.60;99.90;;;;;;6122995;23;20379;-92
2023/05/11 06:44:19;;;;;;;3.72;3.20;;;12.70;99.90;;;;;;6120724;23;20469;-93
2023/05/11 06:46:45;;;;;;;3.10;2.80;;;12.70;99.90;;;;;;6122695;23;20383;-91
2023/05/11 06:49:11;;;;;;;3.45;3.15;;;12.70;99.90;;;;;;6120956;23;20733;-91
2023/05/11 06:51:36;;;;;;;3.47;3.17;;;12.70;99.90;;;;;;6122670;23;20371;-91
2023/05/11 06:54:02;;;;;;;3.67;3.38;;;12.60;99.90;;;;;;6121479;23;20371;-91
2023/05/11 06:56:28;;;;;;;4.60;4.00;;;13.00;99.90;;;;;;6121661;23;20728;-94
2023/05/11 06:58:54;;;;;;;4.60;3.80;;;12.90;99.90;;;;;;6122203;23;20375;-92
2023/05/11 07:01:19;;;;;;;4.22;3.60;;;13.00;99.90;;;;;;6121293;23;20455;-93
2023/05/11 07:03:47;;;;;;;3.92;3.50;;;12.90;99.90;;;;;;6122631;23;20690;-93
2023/05/11 07:06:13;;;;;;;4.87;4.37;;;12.60;99.90;;;;;;6120695;23;20663;-91
2023/05/11 07:08:39;;;;;;;5.47;4.87;;;13.00;99.90;;;;;;6122125;23;20478;-92
2023/05/11 07:11:05;;;;;;;6.00;5.00;;;12.90;99.90;;;;;;6121271;23;20470;-93
2023/05/11 07:13:34;;;;;;;6.23;5.47;;;12.70;99.90;;;;;;6121886;23;20367;-93
2023/05/11 07:16:00;;;;;;;7.95;6.68;;;13.10;99.90;;;;;;6121994;23;20401;-93
2023/05/11 07:18:25;;;;;;;7.90;6.57;;;12.80;99.90;;;;;;6120887;23;20390;-93
2023/05/11 07:20:51;;;;;;;9.13;7.90;;;13.20;99.90;;;;;;6122510;23;20401;-92
2023/05/11 07:23:17;;;;;;;12.10;9.15;;;13.00;99.90;;;;;;6120570;23;20929;-94
2023/05/11 07:25:42;;;;;;;12.82;9.60;;;12.80;99.90;;;;;;6122572;23;20951;-93
2023/05/11 07:28:08;;;;;;;11.50;8.80;;;12.90;99.90;;;;;;6120587;23;20410;-92
2023/05/11 07:30:34;;;;;;;12.13;8.82;;;13.20;99.90;;;;;;6122123;23;20871;-92
2023/05/11 07:32:59;;;;;;;11.27;8.90;;;13.30;99.90;;;;;;6121142;23;20422;-93
2023/05/11 07:35:25;;;;;;;12.07;8.90;;;13.40;99.90;;;;;;6120857;23;20379;-92
2023/05/11 07:37:51;;;;;;;12.73;9.23;;;13.40;99.90;;;;;;6122248;23;20469;-94
2023/05/11 07:40:17;;;;;;;13.63;9.73;;;13.30;99.90;;;;;;6120388;23;20451;-93
2023/05/11 07:42:43;;;;;;;13.63;9.77;;;13.30;99.90;;;;;;6122574;23;20363;-92
2023/05/11 07:45:09;;;;;;;15.43;10.52;;;13.80;99.90;;;;;;6119985;23;20425;-92
2023/05/11 07:47:34;;;;;;;17.15;11.13;;;13.50;99.90;;;;;;6122580;23;20477;-91
2023/05/11 07:50:00;;;;;;;17.95;11.15;;;13.50;99.90;;;;;;6120704;23;20418;-93
2023/05/11 07:52:26;;;;;;;15.30;10.33;;;13.50;99.90;;;;;;6122042;23;20824;-94
2023/05/11 07:54:51;;;;;;;15.00;10.00;;;13.80;99.90;;;;;;6121680;23;20745;-93
2023/05/11 07:57:18;;;;;;;14.45;10.10;;;13.40;99.90;;;;;;6120707;23;20375;-93
2023/05/11 07:59:44;;;;;;;15.63;10.07;;;13.70;99.90;;;;;;6122356;23;20394;-91
2023/05/11 08:02:10;;;;;;;15.53;9.57;;;13.70;99.90;;;;;;6121141;23;20379;-93
2023/05/11 08:04:35;;;;;;;16.67;10.43;;;13.90;99.90;;;;;;6122521;23;20403;-92
2023/05/11 08:07:04;;;;;;;17.90;10.90;;;13.80;99.90;;;;;;6120818;23;20371;-94
2023/05/11 08:09:31;;;;;;;18.17;10.95;;;13.70;99.90;;;;;;6121848;23;20375;-95
2023/05/11 08:11:56;;;;;;;18.52;10.90;;;13.90;99.90;;;;;;6120711;23;20736;-95
2023/05/11 08:14:24;;;;;;;19.03;11.33;;;13.90;99.90;;;;;;6121838;23;20466;-94
2023/05/11 08:16:49;;;;;;;20.50;11.18;;;13.70;99.90;;;;;;6121370;23;20417;-93
2023/05/11 08:19:15;;;;;;;20.23;11.20;;;13.90;99.90;;;;;;6121502;23;20875;-94
2023/05/11 08:21:43;;;;;;;24.33;12.48;;;13.90;99.90;;;;;;6123623;23;20872;-94
2023/05/11 08:24:09;;;;;;;27.05;13.32;;;14.10;99.90;;;;;;6122213;23;20378;-94
2023/05/11 08:26:35;;;;;;;25.50;12.68;;;14.00;99.90;;;;;;6125013;23;20375;-94
2023/05/11 08:29:00;;;;;;;26.17;12.93;;;13.70;99.90;;;;;;6122103;23;20425;-95
2023/05/11 08:31:33;;;;;;;22.50;11.80;;;13.70;99.90;;;;;;6123898;23;20442;-95
2023/05/11 08:34:02;;;;;;;21.50;11.65;;;13.60;99.90;;;;;;6123808;23;20926;-95
2023/05/11 08:36:27;;;;;;;20.48;11.20;;;13.90;99.90;;;;;;6124425;23;20380;-94
2023/05/11 08:38:53;;;;;;;22.85;12.07;;;14.00;99.90;;;;;;6123909;23;21009;-93
2023/05/11 08:41:19;;;;;;;27.07;13.37;;;13.80;99.90;;;;;;6121967;23;21388;-94
2023/05/11 08:43:51;;;;;;;23.27;12.30;;;13.90;99.90;;;;;;6124116;23;20375;-94
2023/05/11 08:46:21;;;;;;;19.33;10.63;;;14.00;99.90;;;;;;6123515;23;20378;-95
2023/05/11 08:48:50;;;;;;;22.88;11.95;;;14.20;99.90;;;;;;6123955;23;20402;-94
2023/05/11 08:51:56;;;;;;;;;;;;;;;;;;;;;
2023/05/11 08:54:25;;;;;;;20.33;11.15;;;14.10;99.90;;;;;;6146670;23;20381;-94
2023/05/11 08:56:51;;;;;;;19.13;11.03;;;14.30;99.90;;;;;;6123936;23;20768;-95
2023/05/11 08:59:17;;;;;;;20.27;10.88;;;14.10;99.90;;;;;;6121652;23;20378;-93
2023/05/11 09:01:44;;;;;;;17.42;10.27;;;14.20;99.90;;;;;;6127829;23;20469;-91
2023/05/11 09:04:12;;;;;;;21.87;12.23;;;14.20;99.90;;;;;;6127033;23;20475;-95
2023/05/11 09:06:40;;;;;;;19.48;11.07;;;14.50;99.90;;;;;;6128538;23;20397;-95
2023/05/11 09:09:09;;;;;;;19.23;11.30;;;14.80;99.90;;;;;;6129606;23;20393;-96
2023/05/11 09:11:35;;;;;;;20.73;12.02;;;14.60;99.90;;;;;;6127795;23;20392;-94
2023/05/11 09:14:00;;;;;;;17.73;11.20;;;14.40;99.90;;;;;;6128645;23;20417;-91
2023/05/11 09:16:26;;;;;;;18.77;11.73;;;14.60;99.90;;;;;;6126571;23;20408;-94
2023/05/11 09:18:52;;;;;;;18.75;12.45;;;14.40;99.90;;;;;;6128683;23;20383;-94
2023/05/11 09:21:19;;;;;;;17.57;12.13;;;14.60;99.90;;;;;;6126194;23;20369;-94
2023/05/11 09:23:51;;;;;;;15.77;11.80;;;14.80;99.90;;;;;;6128839;23;20865;-94
2023/05/11 09:26:19;;;;;;;14.53;11.17;;;14.50;99.90;;;;;;6127583;23;20377;-93
2023/05/11 09:29:02;;;;;;;14.27;11.00;;;14.70;99.90;;;;;;6128059;23;20901;-94
2023/05/11 09:31:35;;;;;;;13.15;10.63;;;14.60;99.90;;;;;;6127825;23;20743;-94
2023/05/11 09:34:17;;;;;;;11.50;9.53;;;14.70;99.90;;;;;;6126125;23;20377;-93
2023/05/11 09:36:45;;;;;;;12.23;9.60;;;14.90;99.90;;;;;;6128815;23;20479;-94
2023/05/11 09:39:15;;;;;;;12.77;9.85;;;14.80;99.90;;;;;;6126621;23;20376;-95
2023/05/11 09:41:41;;;;;;;12.05;9.80;;;15.10;99.90;;;;;;6128158;23;20378;-93
2023/05/11 09:44:09;;;;;;;10.25;8.88;;;15.40;99.90;;;;;;6128267;23;20427;-95
2023/05/11 09:46:36;;;;;;;8.90;8.00;;;15.60;99.90;;;;;;6126349;23;20373;-93
2023/05/11 09:49:03;;;;;;;9.18;8.25;;;15.40;99.90;;;;;;6129544;23;20727;-95
2023/05/11 09:51:34;;;;;;;8.73;7.82;;;15.80;99.90;;;;;;6127679;23;20755;-95
2023/05/11 09:54:03;;;;;;;9.27;8.20;;;16.30;99.90;;;;;;6128871;23;20429;-94
2023/05/11 09:56:50;;;;;;;9.23;8.23;;;15.90;99.90;;;;;;6127459;23;20372;-93
2023/05/11 09:59:36;;;;;;;9.20;8.23;;;16.10;99.90;;;;;;6131264;23;20369;-94
2023/05/11 10:02:18;;;;;;;8.75;7.85;;;16.30;99.90;;;;;;6118517;23;20388;-92
2023/05/11 10:04:57;;;;;;;9.23;8.23;;;16.70;99.90;;;;;;6098223;23;20381;-96
2023/05/11 10:07:25;;;;;;;9.23;8.32;;;16.60;99.90;;;;;;6123249;23;20433;-94
2023/05/11 10:10:00;;;;;;;9.37;8.47;;;16.90;99.90;;;;;;6119408;23;20380;-94
2023/05/11 10:12:32;;;;;;;9.50;8.60;;;16.70;99.90;;;;;;6133098;23;20381;-93
2023/05/11 10:18:01;;;;;;;9.38;8.48;;;17.00;99.90;;;;;;6122236;23;20891;-94
2023/05/11 10:20:34;;;;;;;9.27;8.38;;;17.20;99.90;;;;;;6132609;23;20375;-96
2023/05/11 10:23:00;;;;;;;10.30;9.13;;;17.70;99.90;;;;;;6127691;23;20378;-93
2023/05/11 10:25:26;;;;;;;10.85;9.85;;;17.40;99.90;;;;;;6130118;23;20372;-95
2023/05/11 10:27:53;;;;;;;10.27;9.23;;;17.50;99.90;;;;;;6145256;23;20399;-94
2023/05/11 10:30:20;;;;;;;11.10;9.93;;;17.50;99.90;;;;;;6196516;23;20412;-94
2023/05/11 10:32:54;;;;;;;10.10;8.40;;;17.60;99.90;;;;;;6190910;23;20377;-96
2023/05/11 10:35:20;;;;;;;10.35;9.30;;;18.20;99.90;;;;;;6191213;23;20879;-94
2023/05/11 10:37:46;;;;;;;11.77;10.68;;;18.50;99.90;;;;;;6183332;23;20451;-94
2023/05/11 10:40:12;;;;;;;11.88;10.77;;;18.70;99.90;;;;;;6187959;23;20375;-94
2023/05/11 10:42:56;;;;;;;12.52;11.32;;;18.70;99.90;;;;;;6183652;23;20374;-94
2023/05/11 10:45:53;;;;;;;13.75;12.45;;;18.60;99.90;;;;;;6191569;23;20382;-94
2023/05/11 10:48:35;;;;;;;15.35;13.98;;;18.90;99.90;;;;;;6184316;23;20391;-92
2023/05/11 10:51:25;;;;;;;19.20;17.40;;;18.80;99.90;;;;;;6187811;23;20845;-93
2023/05/11 10:54:15;;;;;;;21.67;19.63;;;19.00;99.90;;;;;;6192128;23;20441;-94
2023/05/11 10:57:20;;;;;;;21.90;20.00;;;18.70;99.90;;;;;;6190869;23;20384;-94
2023/05/11 11:00:09;;;;;;;23.67;21.63;;;18.90;99.90;;;;;;6193050;23;20460;-95
2023/05/11 11:02:45;;;;;;;21.05;19.25;;;18.90;99.90;;;;;;6190077;23;20371;-96
2023/05/11 11:05:31;;;;;;;20.50;18.70;;;18.80;99.90;;;;;;6186196;23;20363;-94
2023/05/11 11:08:04;;;;;;;21.13;19.23;;;18.80;99.90;;;;;;6192182;23;20375;-93
2023/05/11 11:10:38;;;;;;;20.08;18.38;;;19.20;99.90;;;;;;6195483;23;20368;-95
2023/05/11 11:13:28;;;;;;;17.33;15.73;;;19.10;99.90;;;;;;6191351;23;20430;-94
2023/05/11 11:16:07;;;;;;;15.07;13.82;;;19.30;99.90;;;;;;6195737;23;20387;-95
2023/05/11 11:19:15;;;;;;;13.33;12.20;;;19.50;99.90;;;;;;6185654;23;20435;-95
2023/05/11 11:21:44;;;;;;;13.80;12.60;;;19.50;99.90;;;;;;6108033;23;20430;-92
2023/05/11 11:24:43;;;;;;;13.55;12.45;;;19.10;99.90;;;;;;6177053;23;20392;-94
2023/05/11 11:27:09;;;;;;;11.30;10.40;;;19.70;99.90;;;;;;6191534;23;20693;-93
2023/05/11 11:30:20;;;;;;;11.00;10.10;;;19.90;99.90;;;;;;6190007;23;20474;-95
2023/05/11 11:32:53;;;;;;;10.25;9.43;;;19.70;99.90;;;;;;6184919;23;20372;-94
2023/05/11 11:35:38;;;;;;;8.13;7.43;;;20.10;99.90;;;;;;6188673;23;20371;-95
2023/05/11 11:38:16;;;;;;;8.43;7.72;;;19.90;99.90;;;;;;6184465;23;20367;-95
2023/05/11 11:40:56;;;;;;;8.32;7.63;;;20.20;99.90;;;;;;6189349;23;20355;-96
2023/05/11 11:43:24;;;;;;;7.15;6.55;;;20.00;99.90;;;;;;6190678;23;20474;-93
2023/05/11 11:46:25;;;;;;;8.05;7.35;;;20.00;99.90;;;;;;6209829;23;20440;-94
2023/05/11 11:49:04;;;;;;;7.10;6.50;;;20.20;99.90;;;;;;6213491;23;20427;-95
2023/05/11 11:51:32;;;;;;;7.63;7.03;;;20.10;99.90;;;;;;6189403;23;20364;-93
2023/05/11 11:54:46;;;;;;;7.28;6.68;;;19.90;99.90;;;;;;6192550;23;20374;-96
2023/05/11 11:57:37;;;;;;;7.32;6.72;;;19.60;99.90;;;;;;6157659;23;20372;-94
2023/05/11 12:00:15;;;;;;;8.07;7.38;;;19.40;99.90;;;;;;6197031;23;20705;-95
2023/05/11 12:02:50;;;;;;;8.50;7.70;;;19.40;99.90;;;;;;6184695;23;20379;-94
2023/05/11 12:05:18;;;;;;;8.77;8.07;;;19.50;99.90;;;;;;6190953;23;20372;-93
2023/05/11 12:08:17;;;;;;;8.68;7.90;;;20.10;99.90;;;;;;6185982;23;20402;-96
2023/05/11 12:11:09;;;;;;;8.90;8.20;;;20.40;99.90;;;;;;6082304;23;20412;-94
2023/05/11 12:13:35;;;;;;;9.15;8.45;;;20.60;99.90;;;;;;6105989;23;20375;-91
2023/05/11 12:16:13;;;;;;;9.17;8.37;;;20.20;99.90;;;;;;6190422;23;20403;-94
2023/05/11 12:18:53;;;;;;;7.70;7.10;;;20.90;99.90;;;;;;6187735;23;20371;-94
2023/05/11 12:24:21;;;;;;;6.43;5.93;;;21.10;96.60;;;;;;6197469;23;20836;-95
2023/05/11 12:26:47;;;;;;;6.18;5.68;;;20.90;98.70;;;;;;6197728;23;20411;-94
2023/05/11 12:29:14;;;;;;;5.70;5.27;;;20.80;98.60;;;;;;6188403;23;20399;-95
2023/05/11 12:31:47;;;;;;;5.93;5.43;;;21.50;98.50;;;;;;6195294;23;20418;-95
2023/05/11 12:34:16;;;;;;;6.20;5.53;;;20.70;99.60;;;;;;6186255;23;20383;-93
2023/05/11 12:36:47;;;;;;;6.53;5.95;;;20.80;99.90;;;;;;6189533;23;20434;-95
2023/05/11 12:39:21;;;;;;;6.55;5.90;;;20.90;99.20;;;;;;6188544;23;20363;-93
2023/05/11 12:42:17;;;;;;;6.22;5.72;;;21.20;99.90;;;;;;6192966;23;20426;-94
2023/05/11 12:44:43;;;;;;;6.40;5.88;;;21.50;99.00;;;;;;6187535;23;20379;-94
2023/05/11 12:47:30;;;;;;;6.35;5.75;;;21.90;97.30;;;;;;6194865;23;20403;-94
2023/05/11 12:50:06;;;;;;;5.75;5.25;;;22.20;95.50;;;;;;6189210;23;20376;-94
2023/05/11 12:53:15;;;;;;;5.63;5.13;;;22.20;94.50;;;;;;6188534;23;20360;-95
2023/05/11 12:56:25;;;;;;;5.72;5.25;;;22.20;95.30;;;;;;6151102;23;20383;-94
2023/05/11 12:58:50;;;;;;;4.80;4.50;;;22.40;92.60;;;;;;6085926;23;20384;-94